Time;durP1;ratioP1;P1;durP2;ratioP2;P2;SDS_P1;SDS_P2;PMS_P1;PMS_P2;Temp;Humidity;BMP_temperature;BMP_pressure;BME280_temperature;BME280_humidity;BME280_pressure;Samples;Min_cycle;Max_cycle;Signal;HPM_P1;HPM_P2
2023/12/18 06:06:12;;;;;;;;;;;;;;;3.13;100.00;100287.56;1839139;76;20125;-68
2023/12/18 06:08:39;;;;;;;;;;;;;;;3.08;100.00;100286.81;1824275;78;20386;-75
2023/12/18 06:11:05;;;;;;;;;;;;;;;3.09;100.00;100288.50;1823083;78;20176;-68
2023/12/18 06:13:32;;;;;;;;;;;;;;;3.12;100.00;100290.58;1826246;78;20110;-72
2023/12/18 06:16:01;;;;;;;;;;;;;;;3.15;100.00;100285.36;1810014;78;20124;-70
2023/12/18 06:18:28;;;;;;;;;;;;;;;3.20;100.00;100296.38;1832490;78;20141;-71
2023/12/18 06:20:55;;;;;;;;;;;;;;;3.24;100.00;100298.00;1833732;78;20093;-68
2023/12/18 06:23:22;;;;;;;;;;;;;;;3.30;100.00;100303.02;1826896;78;20121;-73
2023/12/18 06:25:48;;;;;;;;;;;;;;;3.36;100.00;100305.91;1829843;78;20121;-80
2023/12/18 06:28:15;;;;;;;;;;;;;;;3.43;100.00;100310.04;1820844;78;20187;-73
2023/12/18 06:30:42;;;;;;;;;;;;;;;3.51;100.00;100310.72;1798328;78;20117;-69
2023/12/18 06:33:09;;;;;;;;;;;;;;;3.56;100.00;100311.46;1805818;78;20145;-77
2023/12/18 06:35:54;;;;;;;;;;;;;;;3.62;100.00;100307.87;1824126;78;20422;-70
2023/12/18 06:38:37;;;;;;;;;;;;;;;3.67;100.00;100300.44;1807616;78;20171;-74
2023/12/18 06:41:10;;;;;;;;;;;;;;;3.75;100.00;100304.57;1811522;78;20169;-69
2023/12/18 06:43:39;;;;;;;;;;;;;;;3.80;100.00;100299.72;1818115;78;20536;-73
2023/12/18 06:46:06;;;;;;;;;;;;;;;3.86;100.00;100301.30;1816593;78;20632;-70
2023/12/18 06:48:33;;;;;;;;;;;;;;;3.91;100.00;100298.17;1808329;78;20328;-72
2023/12/18 06:50:59;;;;;;;;;;;;;;;3.94;100.00;100301.52;1819356;78;20111;-69
2023/12/18 06:53:26;;;;;;;;;;;;;;;3.98;100.00;100300.56;1816550;78;20163;-71
2023/12/18 06:55:53;;;;;;;;;;;;;;;4.03;100.00;100303.84;1818954;78;20466;-75
2023/12/18 06:58:19;;;;;;;;;;;;;;;4.07;100.00;100307.63;1811163;78;20568;-72
2023/12/18 07:00:46;;;;;;;;;;;;;;;4.10;100.00;100305.83;1825546;78;20425;-70
2023/12/18 07:03:13;;;;;;;;;;;;;;;4.14;100.00;100320.33;1814614;78;20347;-75
2023/12/18 07:05:39;;;;;;;;;;;;;;;4.16;100.00;100314.70;1808320;78;20208;-71
2023/12/18 07:08:06;;;;;;;;;;;;;;;4.19;100.00;100321.51;1811036;79;20094;-80
2023/12/18 07:10:33;;;;;;;;;;;;;;;4.21;100.00;100320.58;1805111;79;20126;-74
2023/12/18 07:13:00;;;;;;;;;;;;;;;4.26;100.00;100322.61;1819690;79;20136;-73
2023/12/18 07:15:27;;;;;;;;;;;;;;;4.30;100.00;100318.22;1804906;79;20126;-69
2023/12/18 07:17:54;;;;;;;;;;;;;;;4.31;100.00;100323.78;1813317;79;20567;-74
2023/12/18 07:20:20;;;;;;;;;;;;;;;4.32;100.00;100325.47;1795864;78;20180;-78
2023/12/18 07:22:47;;;;;;;;;;;;;;;4.34;100.00;100318.55;1785811;79;20182;-71
2023/12/18 07:25:14;;;;;;;;;;;;;;;4.33;100.00;100316.41;1776992;81;20123;-80
2023/12/18 07:27:40;;;;;;;;;;;;;;;4.36;100.00;100316.77;1800437;79;20383;-71
2023/12/18 07:30:08;;;;;;;;;;;;;;;4.34;100.00;100310.37;1814174;79;20156;-77
2023/12/18 07:32:35;;;;;;;;;;;;;;;4.37;100.00;100317.63;1795597;79;20414;-73
2023/12/18 07:35:02;;;;;;;;;;;;;;;4.40;100.00;100318.36;1806263;79;20125;-78
2023/12/18 07:37:29;;;;;;;;;;;;;;;4.45;100.00;100320.81;1802192;79;20144;-80
2023/12/18 07:39:59;;;;;;;;;;;;;;;4.50;100.00;100321.10;1791772;79;20155;-69
2023/12/18 07:42:26;;;;;;;;;;;;;;;4.54;100.00;100318.84;1802925;79;20105;-73
2023/12/18 07:44:53;;;;;;;;;;;;;;;4.58;100.00;100321.75;1819263;79;20132;-72
2023/12/18 07:47:20;;;;;;;;;;;;;;;4.62;100.00;100316.91;1820105;79;20129;-76
2023/12/18 07:49:48;;;;;;;;;;;;;;;4.66;100.00;100315.94;1818018;79;20422;-78
2023/12/18 07:52:16;;;;;;;;;;;;;;;4.72;100.00;100311.50;1798788;79;20126;-69
2023/12/18 07:54:43;;;;;;;;;;;;;;;4.79;100.00;100316.90;1791625;79;20108;-76
2023/12/18 07:57:10;;;;;;;;;;;;;;;4.84;100.00;100311.98;1779751;79;20124;-74
2023/12/18 07:59:39;;;;;;;;;;;;;;;4.88;100.00;100315.33;1781553;79;20096;-84
2023/12/18 08:02:11;;;;;;;;;;;;;;;4.90;100.00;100310.97;1791627;79;20128;-72
2023/12/18 08:04:38;;;;;;;;;;;;;;;4.92;100.00;100317.78;1802957;79;20187;-67
2023/12/18 08:07:07;;;;;;;;;;;;;;;4.96;100.00;100314.67;1789256;80;20386;-71
2023/12/18 08:09:35;;;;;;;;;;;;;;;4.97;100.00;100323.66;1790725;79;20109;-78
2023/12/18 08:12:02;;;;;;;;;;;;;;;4.99;100.00;100319.74;1816698;79;20121;-69
2023/12/18 08:14:29;;;;;;;;;;;;;;;4.99;100.00;100318.45;1786595;79;20101;-70
2023/12/18 08:16:56;;;;;;;;;;;;;;;5.01;100.00;100317.97;1776739;81;20198;-69
2023/12/18 08:19:23;;;;;;;;;;;;;;;5.01;100.00;100322.69;1800348;79;20149;-72
2023/12/18 08:21:51;;;;;;;;;;;;;;;5.03;100.00;100322.64;1796966;79;20142;-74
2023/12/18 08:24:20;;;;;;;;;;;;;;;5.03;100.00;100317.48;1805466;79;20485;-68
2023/12/18 08:26:51;;;;;;;;;;;;;;;5.03;100.00;100329.94;1820216;79;20127;-72
2023/12/18 08:29:15;;;;;;;;;;;;;;;5.04;100.00;100330.78;1820298;79;20149;-68
2023/12/18 08:31:42;;;;;;;;;;;;;;;5.07;100.00;100322.11;1820901;79;20129;-72
2023/12/18 08:34:09;;;;;;;;;;;;;;;5.09;100.00;100324.20;1803789;79;20398;-71
2023/12/18 08:36:36;;;;;;;;;;;;;;;5.10;100.00;100316.41;1809191;79;20177;-70
2023/12/18 08:39:03;;;;;;;;;;;;;;;5.13;100.00;100323.22;1815167;79;20458;-68
2023/12/18 08:41:30;;;;;;;;;;;;;;;5.16;100.00;100323.98;1817454;79;20097;-70
2023/12/18 08:43:58;;;;;;;;;;;;;;;5.21;100.00;100321.23;1809270;79;20126;-68
2023/12/18 08:46:25;;;;;;;;;;;;;;;5.26;100.00;100314.20;1814254;79;20129;-70
2023/12/18 08:48:51;;;;;;;;;;;;;;;5.31;100.00;100307.17;1813654;79;20145;-72
2023/12/18 08:51:18;;;;;;;;;;;;;;;5.36;100.00;100324.22;1812777;79;20126;-68
2023/12/18 08:53:45;;;;;;;;;;;;;;;5.41;100.00;100326.66;1819404;79;20122;-68
2023/12/18 08:56:12;;;;;;;;;;;;;;;5.45;100.00;100315.80;1822100;79;20175;-75
2023/12/18 09:56:53;;;;;;;;;;;;;;;5.59;100.00;100298.14;1820011;79;20168;-70
2023/12/18 09:59:20;;;;;;;;;;;;;;;5.57;100.00;100297.34;1811339;79;20149;-70
2023/12/18 10:01:46;;;;;;;;;;;;;;;5.52;100.00;100306.53;1819908;79;20116;-68
2023/12/18 10:04:13;;;;;;;;;;;;;;;5.50;100.00;100294.55;1820929;79;20141;-75
2023/12/18 10:36:35;;;;;;;;;;;;;;;5.39;100.00;100312.11;1804517;79;20153;-79
2023/12/18 10:39:02;;;;;;;;;;;;;;;5.38;100.00;100308.68;1809640;79;20137;-78
2023/12/18 10:41:30;;;;;;;;;;;;;;;5.37;100.00;100303.11;1796920;79;20142;-75
2023/12/18 10:44:01;;;;;;;;;;;;;;;5.35;100.00;100305.74;1801770;79;20106;-70
2023/12/18 10:46:28;;;;;;;;;;;;;;;5.36;100.00;100305.30;1815236;79;20122;-72
2023/12/18 10:48:55;;;;;;;;;;;;;;;5.36;100.00;100307.44;1820011;79;20380;-68
2023/12/18 10:51:22;;;;;;;;;;;;;;;5.39;100.00;100305.20;1820959;79;20137;-79
2023/12/18 10:54:16;;;;;;;;;;;;;;;5.40;100.00;100309.48;1784355;79;20423;-87
2023/12/18 10:56:30;;;;;;;;;;;;;;;5.46;100.00;100310.59;1784065;79;20142;-76
2023/12/18 11:08:52;;;;;;;;;;;;;;;5.69;100.00;100304.69;1787327;79;20138;-77
2023/12/18 11:11:19;;;;;;;;;;;;;;;5.76;100.00;100302.31;1792522;79;20133;-70
2023/12/18 11:32:45;;;;;;;;;;;;;;;5.79;100.00;100320.30;1776517;79;20133;-77
2023/12/18 11:35:12;;;;;;;;;;;;;;;5.79;100.00;100324.63;1791793;79;20142;-83
2023/12/18 11:37:42;;;;;;;;;;;;;;;5.75;100.00;100325.61;1769839;79;20422;-84
2023/12/18 11:40:32;;;;;;;;;;;;;;;5.70;100.00;100332.21;1788281;79;20161;-79
2023/12/18 11:43:02;;;;;;;;;;;;;;;5.67;100.00;100329.72;1791675;79;20126;-72
2023/12/18 11:45:29;;;;;;;;;;;;;;;5.63;100.00;100342.33;1802062;79;20129;-81
2023/12/18 11:47:57;;;;;;;;;;;;;;;5.59;100.00;100349.36;1763884;79;20177;-79
2023/12/18 11:50:26;;;;;;;;;;;;;;;5.56;100.00;100349.91;1769119;79;20133;-80
2023/12/18 11:52:55;;;;;;;;;;;;;;;5.53;100.00;100355.16;1808343;79;20166;-72
2023/12/18 11:55:42;;;;;;;;;;;;;;;5.50;100.00;100362.55;1794868;79;20165;-75
2023/12/18 11:58:09;;;;;;;;;;;;;;;5.47;100.00;100358.77;1804760;79;20165;-76
2023/12/18 12:00:37;;;;;;;;;;;;;;;5.42;100.00;100367.54;1800716;79;20126;-74
2023/12/18 12:03:04;;;;;;;;;;;;;;;5.36;100.00;100366.83;1799800;79;20098;-83
2023/12/18 12:08:03;;;;;;;;;;;;;;;5.30;100.00;100371.31;1810616;79;20207;-76
2023/12/18 12:10:30;;;;;;;;;;;;;;;5.28;100.00;100371.80;1793540;79;20094;-69
